sensor_id;sensor_type;location;lat;lon;timestamp;pressure;altitude;pressure_sealevel;temperature;humidity
27805;BME280;15183;51.350;11.102;2023-05-15T00:00:31;99689.72;;;14.26;53.39
27805;BME280;15183;51.350;11.102;2023-05-15T00:03:03;99684.53;;;14.14;53.36
27805;BME280;15183;51.350;11.102;2023-05-15T00:05:30;99702.41;;;14.18;53.52
27805;BME280;15183;51.350;11.102;2023-05-15T00:07:56;99683.41;;;14.04;53.44
27805;BME280;15183;51.350;11.102;2023-05-15T00:10:23;99693.53;;;14.08;53.63
27805;BME280;15183;51.350;11.102;2023-05-15T00:12:49;99689.50;;;14.05;53.57
27805;BME280;15183;51.350;11.102;2023-05-15T00:15:16;99694.78;;;14.00;53.49
27805;BME280;15183;51.350;11.102;2023-05-15T00:17:42;99691.81;;;13.96;53.55
27805;BME280;15183;51.350;11.102;2023-05-15T00:20:10;99656.97;;;13.70;53.68
27805;BME280;15183;51.350;11.102;2023-05-15T00:22:36;99674.88;;;13.80;53.67
27805;BME280;15183;51.350;11.102;2023-05-15T00:25:03;99680.53;;;13.84;54.10
27805;BME280;15183;51.350;11.102;2023-05-15T00:27:29;99678.69;;;13.84;53.88
27805;BME280;15183;51.350;11.102;2023-05-15T00:29:56;99684.78;;;13.85;53.94
27805;BME280;15183;51.350;11.102;2023-05-15T00:32:22;99686.66;;;13.84;54.42
27805;BME280;15183;51.350;11.102;2023-05-15T00:34:49;99679.16;;;13.81;54.44
27805;BME280;15183;51.350;11.102;2023-05-15T00:37:15;99680.56;;;13.89;54.64
27805;BME280;15183;51.350;11.102;2023-05-15T00:39:41;99677.94;;;13.94;54.11
27805;BME280;15183;51.350;11.102;2023-05-15T00:42:08;99669.72;;;13.96;54.48
27805;BME280;15183;51.350;11.102;2023-05-15T00:44:35;99661.97;;;13.94;54.15
27805;BME280;15183;51.350;11.102;2023-05-15T00:47:05;99674.38;;;14.11;54.02
27805;BME280;15183;51.350;11.102;2023-05-15T00:49:32;99669.59;;;14.13;53.73
27805;BME280;15183;51.350;11.102;2023-05-15T00:52:00;99676.22;;;14.10;53.90
27805;BME280;15183;51.350;11.102;2023-05-15T00:54:28;99668.72;;;14.02;54.00
27805;BME280;15183;51.350;11.102;2023-05-15T00:56:56;99665.22;;;14.01;54.50
27805;BME280;15183;51.350;11.102;2023-05-15T00:59:29;99669.03;;;14.06;54.51
27805;BME280;15183;51.350;11.102;2023-05-15T01:01:56;99660.53;;;14.09;54.44
27805;BME280;15183;51.350;11.102;2023-05-15T01:04:23;99648.47;;;14.01;54.35
27805;BME280;15183;51.350;11.102;2023-05-15T01:06:50;99651.16;;;14.06;54.37
27805;BME280;15183;51.350;11.102;2023-05-15T01:09:19;99644.19;;;14.00;54.28
27805;BME280;15183;51.350;11.102;2023-05-15T01:11:46;99647.72;;;14.06;54.35
27805;BME280;15183;51.350;11.102;2023-05-15T01:14:15;99646.59;;;14.01;54.36
27805;BME280;15183;51.350;11.102;2023-05-15T01:16:42;99635.34;;;13.94;54.52
27805;BME280;15183;51.350;11.102;2023-05-15T01:19:08;99647.09;;;13.98;54.57
27805;BME280;15183;51.350;11.102;2023-05-15T01:27:21;99644.44;;;13.71;54.75
27805;BME280;15183;51.350;11.102;2023-05-15T01:30:14;99636.81;;;13.52;54.47
27805;BME280;15183;51.350;11.102;2023-05-15T01:35:53;99639.31;;;13.42;54.52
27805;BME280;15183;51.350;11.102;2023-05-15T01:38:52;99652.88;;;13.40;54.86
27805;BME280;15183;51.350;11.102;2023-05-15T01:42:08;99656.44;;;13.46;55.11
27805;BME280;15183;51.350;11.102;2023-05-15T01:44:39;99648.47;;;13.46;55.04
27805;BME280;15183;51.350;11.102;2023-05-15T01:47:12;99650.63;;;13.49;54.90
27805;BME280;15183;51.350;11.102;2023-05-15T01:49:42;99648.25;;;13.53;55.08
27805;BME280;15183;51.350;11.102;2023-05-15T01:52:25;99641.06;;;13.53;55.05
27805;BME280;15183;51.350;11.102;2023-05-15T01:54:54;99643.38;;;13.72;54.92
27805;BME280;15183;51.350;11.102;2023-05-15T01:57:22;99649.66;;;13.88;54.92
27805;BME280;15183;51.350;11.102;2023-05-15T01:59:50;99639.66;;;14.00;54.48
27805;BME280;15183;51.350;11.102;2023-05-15T02:02:17;99630.69;;;14.12;54.04
27805;BME280;15183;51.350;11.102;2023-05-15T02:04:46;99637.19;;;14.26;53.68
27805;BME280;15183;51.350;11.102;2023-05-15T02:07:41;99638.31;;;14.36;53.83
27805;BME280;15183;51.350;11.102;2023-05-15T02:10:11;99633.31;;;14.39;54.07
27805;BME280;15183;51.350;11.102;2023-05-15T02:12:39;99631.50;;;14.45;53.64
27805;BME280;15183;51.350;11.102;2023-05-15T02:15:08;99628.88;;;14.55;53.11
27805;BME280;15183;51.350;11.102;2023-05-15T02:17:35;99623.56;;;14.60;53.38
27805;BME280;15183;51.350;11.102;2023-05-15T02:20:03;99630.03;;;14.70;53.18
27805;BME280;15183;51.350;11.102;2023-05-15T02:22:32;99627.63;;;14.68;52.77
27805;BME280;15183;51.350;11.102;2023-05-15T02:24:59;99633.84;;;14.79;52.40
27805;BME280;15183;51.350;11.102;2023-05-15T02:27:47;99630.34;;;14.73;52.39
27805;BME280;15183;51.350;11.102;2023-05-15T02:30:38;99629.28;;;14.74;52.78
27805;BME280;15183;51.350;11.102;2023-05-15T02:36:05;99616.66;;;14.65;52.53
27805;BME280;15183;51.350;11.102;2023-05-15T02:38:46;99620.94;;;14.66;52.62
27805;BME280;15183;51.350;11.102;2023-05-15T02:41:14;99619.53;;;14.58;52.52
27805;BME280;15183;51.350;11.102;2023-05-15T02:43:43;99599.72;;;14.38;52.77
27805;BME280;15183;51.350;11.102;2023-05-15T02:46:10;99604.19;;;14.32;52.74
27805;BME280;15183;51.350;11.102;2023-05-15T02:48:39;99598.75;;;14.17;52.96
27805;BME280;15183;51.350;11.102;2023-05-15T02:51:06;99605.09;;;14.06;53.29
27805;BME280;15183;51.350;11.102;2023-05-15T02:53:38;99596.06;;;13.79;53.56
27805;BME280;15183;51.350;11.102;2023-05-15T02:56:05;99602.50;;;13.56;53.97
27805;BME280;15183;51.350;11.102;2023-05-15T02:58:33;99595.06;;;13.36;53.80
27805;BME280;15183;51.350;11.102;2023-05-15T03:01:00;99581.06;;;13.18;54.33
27805;BME280;15183;51.350;11.102;2023-05-15T03:03:26;99599.91;;;13.16;54.20
27805;BME280;15183;51.350;11.102;2023-05-15T03:05:53;99588.34;;;13.06;54.59
27805;BME280;15183;51.350;11.102;2023-05-15T03:08:19;99589.09;;;13.01;54.87
27805;BME280;15183;51.350;11.102;2023-05-15T03:10:45;99575.16;;;12.88;54.87
27805;BME280;15183;51.350;11.102;2023-05-15T03:13:13;99590.03;;;12.90;55.08
27805;BME280;15183;51.350;11.102;2023-05-15T03:15:41;99582.53;;;12.86;54.92
27805;BME280;15183;51.350;11.102;2023-05-15T03:18:08;99579.59;;;12.83;55.19
27805;BME280;15183;51.350;11.102;2023-05-15T03:20:34;99556.25;;;12.68;55.18
27805;BME280;15183;51.350;11.102;2023-05-15T03:23:01;99578.75;;;12.82;55.32
27805;BME280;15183;51.350;11.102;2023-05-15T03:25:27;99577.66;;;12.78;55.55
27805;BME280;15183;51.350;11.102;2023-05-15T03:27:54;99582.13;;;12.72;55.70
27805;BME280;15183;51.350;11.102;2023-05-15T03:30:20;99579.97;;;12.69;55.41
27805;BME280;15183;51.350;11.102;2023-05-15T03:32:46;99586.06;;;12.70;55.57
27805;BME280;15183;51.350;11.102;2023-05-15T03:35:13;99578.09;;;12.70;55.47
27805;BME280;15183;51.350;11.102;2023-05-15T03:37:39;99581.47;;;12.65;55.75
27805;BME280;15183;51.350;11.102;2023-05-15T03:40:15;99579.50;;;12.55;56.00
27805;BME280;15183;51.350;11.102;2023-05-15T03:42:41;99578.69;;;12.55;56.25
27805;BME280;15183;51.350;11.102;2023-05-15T03:45:08;99577.06;;;12.54;55.89
27805;BME280;15183;51.350;11.102;2023-05-15T03:47:35;99577.34;;;12.52;56.12
27805;BME280;15183;51.350;11.102;2023-05-15T03:50:01;99561.56;;;12.45;55.99
27805;BME280;15183;51.350;11.102;2023-05-15T03:52:27;99559.56;;;12.36;56.21
27805;BME280;15183;51.350;11.102;2023-05-15T03:54:54;99562.78;;;12.38;56.69
27805;BME280;15183;51.350;11.102;2023-05-15T03:57:20;99572.34;;;12.39;56.29
27805;BME280;15183;51.350;11.102;2023-05-15T03:59:47;99573.72;;;12.41;56.40
27805;BME280;15183;51.350;11.102;2023-05-15T04:02:13;99571.94;;;12.47;56.42
27805;BME280;15183;51.350;11.102;2023-05-15T04:04:39;99567.16;;;12.49;56.69
27805;BME280;15183;51.350;11.102;2023-05-15T04:07:06;99572.44;;;12.66;56.34
27805;BME280;15183;51.350;11.102;2023-05-15T04:09:32;99571.28;;;12.79;56.75
27805;BME280;15183;51.350;11.102;2023-05-15T04:11:59;99563.63;;;12.83;56.62
27805;BME280;15183;51.350;11.102;2023-05-15T04:14:25;99580.53;;;12.94;56.10
27805;BME280;15183;51.350;11.102;2023-05-15T04:16:52;99557.69;;;12.76;56.07
27805;BME280;15183;51.350;11.102;2023-05-15T04:19:18;99559.88;;;12.79;56.50
27805;BME280;15183;51.350;11.102;2023-05-15T04:21:44;99564.31;;;12.95;56.43
27805;BME280;15183;51.350;11.102;2023-05-15T04:24:11;99572.75;;;13.14;56.22
27805;BME280;15183;51.350;11.102;2023-05-15T04:26:37;99571.56;;;13.27;56.28
27805;BME280;15183;51.350;11.102;2023-05-15T04:29:04;99575.38;;;13.37;55.83
27805;BME280;15183;51.350;11.102;2023-05-15T04:31:31;99557.59;;;13.37;56.24
27805;BME280;15183;51.350;11.102;2023-05-15T04:33:57;99567.38;;;13.59;56.12
27805;BME280;15183;51.350;11.102;2023-05-15T04:36:24;99552.81;;;13.67;55.81
27805;BME280;15183;51.350;11.102;2023-05-15T04:38:50;99559.59;;;13.80;55.70
27805;BME280;15183;51.350;11.102;2023-05-15T04:41:16;99564.72;;;13.86;55.22
27805;BME280;15183;51.350;11.102;2023-05-15T04:43:43;99563.09;;;13.85;55.70
27805;BME280;15183;51.350;11.102;2023-05-15T04:46:10;99562.28;;;13.85;55.75
27805;BME280;15183;51.350;11.102;2023-05-15T04:48:36;99563.09;;;13.85;55.85
27805;BME280;15183;51.350;11.102;2023-05-15T04:51:03;99565.00;;;13.90;55.67
27805;BME280;15183;51.350;11.102;2023-05-15T04:53:29;99554.66;;;13.94;55.88
27805;BME280;15183;51.350;11.102;2023-05-15T04:55:55;99550.97;;;14.00;55.61
27805;BME280;15183;51.350;11.102;2023-05-15T04:58:22;99557.72;;;14.13;55.50
27805;BME280;15183;51.350;11.102;2023-05-15T05:00:48;99556.47;;;14.26;55.46
27805;BME280;15183;51.350;11.102;2023-05-15T05:03:14;99558.91;;;14.38;55.51
27805;BME280;15183;51.350;11.102;2023-05-15T05:05:41;99556.06;;;14.50;55.78
27805;BME280;15183;51.350;11.102;2023-05-15T05:08:07;99556.63;;;14.57;55.58
27805;BME280;15183;51.350;11.102;2023-05-15T05:10:34;99540.63;;;14.57;55.65
27805;BME280;15183;51.350;11.102;2023-05-15T05:13:00;99550.88;;;14.75;55.35
27805;BME280;15183;51.350;11.102;2023-05-15T05:15:26;99556.28;;;14.91;55.75
27805;BME280;15183;51.350;11.102;2023-05-15T05:17:53;99542.19;;;15.11;55.91
27805;BME280;15183;51.350;11.102;2023-05-15T05:20:19;99542.78;;;15.44;55.94
27805;BME280;15183;51.350;11.102;2023-05-15T05:22:46;99535.88;;;15.80;56.43
27805;BME280;15183;51.350;11.102;2023-05-15T05:25:12;99543.59;;;16.28;56.02
27805;BME280;15183;51.350;11.102;2023-05-15T05:27:38;99551.25;;;16.71;55.81
27805;BME280;15183;51.350;11.102;2023-05-15T05:30:06;99548.44;;;17.07;56.01
27805;BME280;15183;51.350;11.102;2023-05-15T05:32:33;99541.47;;;17.46;55.79
27805;BME280;15183;51.350;11.102;2023-05-15T05:35:00;99549.50;;;17.86;55.41
27805;BME280;15183;51.350;11.102;2023-05-15T05:37:26;99540.53;;;18.30;55.08
27805;BME280;15183;51.350;11.102;2023-05-15T05:39:52;99540.78;;;18.77;55.03
27805;BME280;15183;51.350;11.102;2023-05-15T05:42:19;99543.66;;;19.05;54.43
27805;BME280;15183;51.350;11.102;2023-05-15T05:44:46;99534.41;;;19.17;54.30
27805;BME280;15183;51.350;11.102;2023-05-15T05:47:12;99525.53;;;19.16;53.88
27805;BME280;15183;51.350;11.102;2023-05-15T05:49:39;99529.06;;;19.12;53.57
27805;BME280;15183;51.350;11.102;2023-05-15T05:52:08;99536.41;;;19.25;53.07
27805;BME280;15183;51.350;11.102;2023-05-15T05:54:35;99537.66;;;19.33;52.74
27805;BME280;15183;51.350;11.102;2023-05-15T05:57:02;99529.00;;;19.36;53.09
27805;BME280;15183;51.350;11.102;2023-05-15T06:03:11;99532.50;;;19.70;52.27
27805;BME280;15183;51.350;11.102;2023-05-15T06:05:37;99538.03;;;19.78;51.98
27805;BME280;15183;51.350;11.102;2023-05-15T06:08:04;99526.09;;;19.85;51.65
27805;BME280;15183;51.350;11.102;2023-05-15T06:10:31;99524.94;;;19.91;50.79
27805;BME280;15183;51.350;11.102;2023-05-15T06:12:58;99529.22;;;19.92;51.14
27805;BME280;15183;51.350;11.102;2023-05-15T06:15:24;99530.63;;;20.03;50.85
27805;BME280;15183;51.350;11.102;2023-05-15T06:17:51;99510.22;;;20.16;50.48
27805;BME280;15183;51.350;11.102;2023-05-15T06:20:17;99520.09;;;20.49;50.81
27805;BME280;15183;51.350;11.102;2023-05-15T06:22:44;99520.16;;;20.72;50.35
27805;BME280;15183;51.350;11.102;2023-05-15T06:25:10;99513.94;;;20.99;50.46
27805;BME280;15183;51.350;11.102;2023-05-15T06:27:40;99517.84;;;21.30;49.60
27805;BME280;15183;51.350;11.102;2023-05-15T06:30:08;99515.97;;;21.53;49.68
27805;BME280;15183;51.350;11.102;2023-05-15T06:32:35;99512.47;;;21.75;49.73
27805;BME280;15183;51.350;11.102;2023-05-15T06:35:01;99522.72;;;21.96;48.90
27805;BME280;15183;51.350;11.102;2023-05-15T06:37:28;99524.22;;;22.11;48.96
27805;BME280;15183;51.350;11.102;2023-05-15T06:39:55;99523.81;;;22.26;48.67
27805;BME280;15183;51.350;11.102;2023-05-15T06:42:22;99508.84;;;22.52;48.15
27805;BME280;15183;51.350;11.102;2023-05-15T06:44:48;99523.03;;;22.84;47.94
27805;BME280;15183;51.350;11.102;2023-05-15T06:47:15;99508.25;;;23.08;47.54
27805;BME280;15183;51.350;11.102;2023-05-15T06:49:41;99516.56;;;23.29;46.76
27805;BME280;15183;51.350;11.102;2023-05-15T06:52:08;99501.91;;;23.48;46.97
27805;BME280;15183;51.350;11.102;2023-05-15T06:54:34;99513.13;;;23.76;46.23
27805;BME280;15183;51.350;11.102;2023-05-15T06:57:01;99509.28;;;23.95;45.59
27805;BME280;15183;51.350;11.102;2023-05-15T06:59:27;99510.22;;;24.08;45.39
27805;BME280;15183;51.350;11.102;2023-05-15T07:01:53;99499.66;;;24.15;45.31
27805;BME280;15183;51.350;11.102;2023-05-15T07:04:21;99491.88;;;24.13;45.06
27805;BME280;15183;51.350;11.102;2023-05-15T07:06:47;99500.09;;;24.26;45.26
27805;BME280;15183;51.350;11.102;2023-05-15T07:09:13;99501.34;;;24.28;45.42
27805;BME280;15183;51.350;11.102;2023-05-15T07:11:40;99489.22;;;24.35;45.22
27805;BME280;15183;51.350;11.102;2023-05-15T07:14:07;99485.06;;;24.37;44.79
27805;BME280;15183;51.350;11.102;2023-05-15T07:16:33;99479.53;;;24.55;44.86
27805;BME280;15183;51.350;11.102;2023-05-15T07:19:00;99491.22;;;24.77;44.59
27805;BME280;15183;51.350;11.102;2023-05-15T07:21:26;99485.63;;;24.73;43.96
27805;BME280;15183;51.350;11.102;2023-05-15T07:23:53;99479.44;;;24.73;44.15
27805;BME280;15183;51.350;11.102;2023-05-15T07:26:19;99497.81;;;24.88;43.53
27805;BME280;15183;51.350;11.102;2023-05-15T07:28:46;99496.78;;;25.02;44.07
27805;BME280;15183;51.350;11.102;2023-05-15T07:31:13;99488.22;;;25.12;43.54
27805;BME280;15183;51.350;11.102;2023-05-15T07:33:39;99492.34;;;25.31;43.25
27805;BME280;15183;51.350;11.102;2023-05-15T07:36:06;99491.47;;;25.60;42.73
27805;BME280;15183;51.350;11.102;2023-05-15T07:38:32;99491.84;;;25.83;42.48
27805;BME280;15183;51.350;11.102;2023-05-15T07:40:58;99491.06;;;25.95;42.15
27805;BME280;15183;51.350;11.102;2023-05-15T07:43:25;99474.66;;;25.92;41.36
27805;BME280;15183;51.350;11.102;2023-05-15T07:45:51;99482.03;;;26.04;41.49
27805;BME280;15183;51.350;11.102;2023-05-15T07:48:19;99459.19;;;26.17;41.38
27805;BME280;15183;51.350;11.102;2023-05-15T07:50:46;99470.38;;;26.53;40.98
27805;BME280;15183;51.350;11.102;2023-05-15T07:53:13;99472.56;;;26.76;40.63
27805;BME280;15183;51.350;11.102;2023-05-15T07:55:43;99458.94;;;26.88;40.29
27805;BME280;15183;51.350;11.102;2023-05-15T07:58:09;99469.00;;;27.00;40.38
27805;BME280;15183;51.350;11.102;2023-05-15T08:00:36;99464.75;;;27.15;40.05
27805;BME280;15183;51.350;11.102;2023-05-15T08:03:03;99464.66;;;27.27;39.51
27805;BME280;15183;51.350;11.102;2023-05-15T08:05:29;99466.03;;;27.34;39.19
27805;BME280;15183;51.350;11.102;2023-05-15T08:07:56;99456.72;;;27.35;38.96
27805;BME280;15183;51.350;11.102;2023-05-15T08:10:22;99462.41;;;27.45;38.81
27805;BME280;15183;51.350;11.102;2023-05-15T08:12:49;99454.34;;;27.49;38.16
27805;BME280;15183;51.350;11.102;2023-05-15T08:15:16;99458.16;;;27.61;38.47
27805;BME280;15183;51.350;11.102;2023-05-15T08:17:42;99457.22;;;27.69;37.89
27805;BME280;15183;51.350;11.102;2023-05-15T08:20:09;99441.50;;;27.62;37.68
27805;BME280;15183;51.350;11.102;2023-05-15T08:22:36;99431.13;;;27.52;36.88
27805;BME280;15183;51.350;11.102;2023-05-15T08:25:03;99447.09;;;27.53;37.06
27805;BME280;15183;51.350;11.102;2023-05-15T08:27:31;99458.78;;;27.54;36.63
27805;BME280;15183;51.350;11.102;2023-05-15T08:29:57;99439.44;;;27.43;37.25
27805;BME280;15183;51.350;11.102;2023-05-15T08:32:24;99455.97;;;27.50;36.33
27805;BME280;15183;51.350;11.102;2023-05-15T08:34:51;99448.81;;;27.45;35.95
27805;BME280;15183;51.350;11.102;2023-05-15T08:37:17;99446.31;;;27.53;35.67
27805;BME280;15183;51.350;11.102;2023-05-15T08:39:43;99439.13;;;27.61;36.08
27805;BME280;15183;51.350;11.102;2023-05-15T08:45:06;99448.69;;;27.86;36.04
27805;BME280;15183;51.350;11.102;2023-05-15T08:47:37;99437.25;;;27.97;36.34
27805;BME280;15183;51.350;11.102;2023-05-15T08:50:14;99434.06;;;28.11;36.38
27805;BME280;15183;51.350;11.102;2023-05-15T08:52:45;99439.00;;;28.21;35.99
27805;BME280;15183;51.350;11.102;2023-05-15T08:55:16;99438.03;;;28.13;35.33
27805;BME280;15183;51.350;11.102;2023-05-15T09:02:18;99443.81;;;28.12;35.30
27805;BME280;15183;51.350;11.102;2023-05-15T09:05:40;99435.91;;;28.07;34.92
27805;BME280;15183;51.350;11.102;2023-05-15T09:15:37;99422.31;;;27.91;34.33
27805;BME280;15183;51.350;11.102;2023-05-15T09:28:40;99423.44;;;27.41;34.45
27805;BME280;15183;51.350;11.102;2023-05-15T09:39:41;99411.31;;;28.03;33.56
27805;BME280;15183;51.350;11.102;2023-05-15T09:49:32;99409.13;;;28.09;31.77
27805;BME280;15183;51.350;11.102;2023-05-15T09:55:41;99417.88;;;27.50;32.62
27805;BME280;15183;51.350;11.102;2023-05-15T09:58:56;99410.44;;;27.19;32.79
27805;BME280;15183;51.350;11.102;2023-05-15T10:16:09;99393.31;;;26.08;33.15
27805;BME280;15183;51.350;11.102;2023-05-15T10:18:39;99397.19;;;26.19;32.91
27805;BME280;15183;51.350;11.102;2023-05-15T10:21:08;99401.44;;;26.33;32.95
27805;BME280;15183;51.350;11.102;2023-05-15T10:23:35;99388.38;;;26.51;32.65
27805;BME280;15183;51.350;11.102;2023-05-15T10:26:13;99384.78;;;26.47;32.07
27805;BME280;15183;51.350;11.102;2023-05-15T10:28:41;99393.28;;;26.45;31.45
27805;BME280;15183;51.350;11.102;2023-05-15T10:31:09;99399.09;;;26.31;31.53
27805;BME280;15183;51.350;11.102;2023-05-15T10:33:38;99401.59;;;26.24;32.19
27805;BME280;15183;51.350;11.102;2023-05-15T10:36:27;99393.88;;;26.13;32.46
27805;BME280;15183;51.350;11.102;2023-05-15T10:54:09;99402.44;;;25.41;33.01
27805;BME280;15183;51.350;11.102;2023-05-15T11:00:45;99387.00;;;25.08;33.20
27805;BME280;15183;51.350;11.102;2023-05-15T11:03:14;99373.31;;;25.04;32.56
27805;BME280;15183;51.350;11.102;2023-05-15T11:06:07;99392.91;;;25.22;33.10
27805;BME280;15183;51.350;11.102;2023-05-15T11:08:39;99390.44;;;25.29;32.95
27805;BME280;15183;51.350;11.102;2023-05-15T11:11:06;99383.91;;;25.43;32.80
27805;BME280;15183;51.350;11.102;2023-05-15T11:22:02;99357.34;;;26.23;32.69
27805;BME280;15183;51.350;11.102;2023-05-15T11:24:30;99363.47;;;26.49;32.35
27805;BME280;15183;51.350;11.102;2023-05-15T11:27:02;99355.31;;;26.61;32.07
27805;BME280;15183;51.350;11.102;2023-05-15T11:29:29;99356.25;;;26.53;32.74
27805;BME280;15183;51.350;11.102;2023-05-15T11:31:56;99369.16;;;26.43;32.78
27805;BME280;15183;51.350;11.102;2023-05-15T11:34:36;99373.38;;;26.28;32.84
27805;BME280;15183;51.350;11.102;2023-05-15T11:37:16;99358.50;;;25.97;33.00
27805;BME280;15183;51.350;11.102;2023-05-15T11:39:43;99359.63;;;25.84;33.39
27805;BME280;15183;51.350;11.102;2023-05-15T11:42:11;99366.00;;;25.63;34.13
27805;BME280;15183;51.350;11.102;2023-05-15T11:44:38;99365.03;;;25.34;35.05
27805;BME280;15183;51.350;11.102;2023-05-15T11:47:09;99367.13;;;25.16;35.68
27805;BME280;15183;51.350;11.102;2023-05-15T11:49:37;99360.50;;;24.92;35.22
27805;BME280;15183;51.350;11.102;2023-05-15T11:52:04;99376.09;;;24.95;35.58
27805;BME280;15183;51.350;11.102;2023-05-15T11:54:31;99381.41;;;24.92;36.01
27805;BME280;15183;51.350;11.102;2023-05-15T11:56:58;99361.84;;;24.86;35.70
27805;BME280;15183;51.350;11.102;2023-05-15T11:59:26;99369.53;;;24.84;35.80
27805;BME280;15183;51.350;11.102;2023-05-15T12:01:52;99362.66;;;24.87;35.60
27805;BME280;15183;51.350;11.102;2023-05-15T12:04:19;99373.75;;;24.94;35.77
27805;BME280;15183;51.350;11.102;2023-05-15T12:06:46;99365.41;;;24.99;35.69
27805;BME280;15183;51.350;11.102;2023-05-15T12:09:18;99364.88;;;25.06;35.62
27805;BME280;15183;51.350;11.102;2023-05-15T12:11:52;99344.88;;;25.10;36.01
27805;BME280;15183;51.350;11.102;2023-05-15T12:14:29;99373.47;;;25.33;36.04
27805;BME280;15183;51.350;11.102;2023-05-15T12:17:00;99356.88;;;25.34;35.61
27805;BME280;15183;51.350;11.102;2023-05-15T12:19:30;99355.22;;;25.42;35.80
27805;BME280;15183;51.350;11.102;2023-05-15T12:21:56;99359.41;;;25.52;35.80
27805;BME280;15183;51.350;11.102;2023-05-15T12:24:22;99350.50;;;25.51;35.14
27805;BME280;15183;51.350;11.102;2023-05-15T12:26:49;99358.19;;;25.62;35.40
27805;BME280;15183;51.350;11.102;2023-05-15T12:29:16;99356.03;;;25.67;35.93
27805;BME280;15183;51.350;11.102;2023-05-15T12:31:42;99345.63;;;25.57;35.81
27805;BME280;15183;51.350;11.102;2023-05-15T12:34:09;99355.81;;;25.72;35.24
27805;BME280;15183;51.350;11.102;2023-05-15T12:36:36;99353.09;;;25.72;35.59
27805;BME280;15183;51.350;11.102;2023-05-15T12:39:06;99345.97;;;25.68;35.84
27805;BME280;15183;51.350;11.102;2023-05-15T12:41:33;99348.13;;;25.75;35.85
27805;BME280;15183;51.350;11.102;2023-05-15T12:43:59;99348.34;;;25.69;35.81
27805;BME280;15183;51.350;11.102;2023-05-15T12:46:29;99361.47;;;25.67;35.92
27805;BME280;15183;51.350;11.102;2023-05-15T12:48:58;99342.44;;;25.55;35.56
27805;BME280;15183;51.350;11.102;2023-05-15T12:51:24;99355.00;;;25.60;35.69
27805;BME280;15183;51.350;11.102;2023-05-15T12:53:52;99343.94;;;25.52;36.24
27805;BME280;15183;51.350;11.102;2023-05-15T12:56:19;99338.50;;;25.52;35.74
27805;BME280;15183;51.350;11.102;2023-05-15T12:58:47;99345.53;;;25.53;36.21
27805;BME280;15183;51.350;11.102;2023-05-15T13:01:14;99345.38;;;25.50;36.14
27805;BME280;15183;51.350;11.102;2023-05-15T13:03:42;99348.09;;;25.50;36.00
27805;BME280;15183;51.350;11.102;2023-05-15T13:06:11;99350.03;;;25.49;35.88
27805;BME280;15183;51.350;11.102;2023-05-15T13:08:40;99345.97;;;25.55;36.20
27805;BME280;15183;51.350;11.102;2023-05-15T13:11:11;99345.41;;;25.62;36.23
27805;BME280;15183;51.350;11.102;2023-05-15T13:13:47;99350.81;;;25.75;35.49
27805;BME280;15183;51.350;11.102;2023-05-15T13:16:24;99352.19;;;25.81;36.11
27805;BME280;15183;51.350;11.102;2023-05-15T13:18:51;99340.63;;;25.84;35.43
27805;BME280;15183;51.350;11.102;2023-05-15T13:21:18;99344.16;;;25.84;35.84
27805;BME280;15183;51.350;11.102;2023-05-15T13:23:44;99346.06;;;25.84;35.30
27805;BME280;15183;51.350;11.102;2023-05-15T13:26:11;99334.31;;;25.80;35.13
27805;BME280;15183;51.350;11.102;2023-05-15T13:28:37;99344.84;;;25.81;35.81
27805;BME280;15183;51.350;11.102;2023-05-15T13:31:04;99333.41;;;25.76;35.69
27805;BME280;15183;51.350;11.102;2023-05-15T13:33:31;99330.47;;;25.68;35.12
27805;BME280;15183;51.350;11.102;2023-05-15T13:35:58;99324.84;;;25.61;35.34
27805;BME280;15183;51.350;11.102;2023-05-15T13:38:24;99322.91;;;25.49;35.64
27805;BME280;15183;51.350;11.102;2023-05-15T13:40:50;99298.44;;;25.37;35.67
27805;BME280;15183;51.350;11.102;2023-05-15T13:43:17;99319.75;;;25.47;35.60
27805;BME280;15183;51.350;11.102;2023-05-15T13:45:43;99310.81;;;25.47;35.55
27805;BME280;15183;51.350;11.102;2023-05-15T13:48:10;99306.47;;;25.46;36.19
27805;BME280;15183;51.350;11.102;2023-05-15T13:50:36;99306.97;;;25.48;36.20
27805;BME280;15183;51.350;11.102;2023-05-15T13:53:02;99299.19;;;25.46;36.11
27805;BME280;15183;51.350;11.102;2023-05-15T13:55:29;99305.28;;;25.55;35.72
27805;BME280;15183;51.350;11.102;2023-05-15T13:57:56;99311.72;;;25.63;36.22
27805;BME280;15183;51.350;11.102;2023-05-15T14:00:22;99308.31;;;25.66;35.68
27805;BME280;15183;51.350;11.102;2023-05-15T14:02:49;99308.88;;;25.72;36.30
27805;BME280;15183;51.350;11.102;2023-05-15T14:05:16;99306.16;;;25.72;36.35
27805;BME280;15183;51.350;11.102;2023-05-15T14:07:43;99302.09;;;25.78;35.96
27805;BME280;15183;51.350;11.102;2023-05-15T14:10:10;99314.06;;;25.90;35.75
27805;BME280;15183;51.350;11.102;2023-05-15T14:12:37;99299.56;;;25.98;36.10
27805;BME280;15183;51.350;11.102;2023-05-15T14:15:04;99301.34;;;26.06;36.20
27805;BME280;15183;51.350;11.102;2023-05-15T14:17:30;99294.53;;;26.12;35.60
27805;BME280;15183;51.350;11.102;2023-05-15T14:19:57;99302.78;;;26.28;35.61
27805;BME280;15183;51.350;11.102;2023-05-15T14:22:23;99291.06;;;26.40;35.46
27805;BME280;15183;51.350;11.102;2023-05-15T14:24:53;99288.53;;;26.48;34.81
27805;BME280;15183;51.350;11.102;2023-05-15T14:27:19;99292.63;;;26.54;35.06
27805;BME280;15183;51.350;11.102;2023-05-15T14:29:46;99294.38;;;26.62;34.99
27805;BME280;15183;51.350;11.102;2023-05-15T14:32:14;99290.97;;;26.65;34.64
27805;BME280;15183;51.350;11.102;2023-05-15T14:34:41;99299.41;;;26.76;33.58
27805;BME280;15183;51.350;11.102;2023-05-15T14:37:07;99298.25;;;26.77;33.73
27805;BME280;15183;51.350;11.102;2023-05-15T14:39:33;99299.47;;;26.80;33.14